sensor_id;sensor_type;location;lat;lon;timestamp;P1;durP1;ratioP1;P2;durP2;ratioP2
40959;SDS011;27842;52.272;8.052;2022-11-20T00:03:36;29.13;;;14.87;;
40959;SDS011;27842;52.272;8.052;2022-11-20T00:06:03;30.73;;;16.80;;
40959;SDS011;27842;52.272;8.052;2022-11-20T00:08:30;33.07;;;17.03;;
40959;SDS011;27842;52.272;8.052;2022-11-20T00:10:56;34.77;;;17.23;;
40959;SDS011;27842;52.272;8.052;2022-11-20T00:13:22;31.77;;;17.90;;
40959;SDS011;27842;52.272;8.052;2022-11-20T00:15:47;30.63;;;16.20;;
40959;SDS011;27842;52.272;8.052;2022-11-20T00:18:13;25.93;;;13.50;;
40959;SDS011;27842;52.272;8.052;2022-11-20T00:20:39;29.77;;;14.57;;
40959;SDS011;27842;52.272;8.052;2022-11-20T00:23:04;27.80;;;14.70;;
40959;SDS011;27842;52.272;8.052;2022-11-20T00:25:33;27.10;;;14.03;;
40959;SDS011;27842;52.272;8.052;2022-11-20T00:27:59;30.27;;;14.80;;
40959;SDS011;27842;52.272;8.052;2022-11-20T00:30:24;27.80;;;13.93;;
40959;SDS011;27842;52.272;8.052;2022-11-20T00:32:50;28.10;;;14.60;;
40959;SDS011;27842;52.272;8.052;2022-11-20T00:35:16;26.87;;;13.00;;
40959;SDS011;27842;52.272;8.052;2022-11-20T00:37:41;29.63;;;15.17;;
40959;SDS011;27842;52.272;8.052;2022-11-20T00:40:07;26.80;;;13.33;;
40959;SDS011;27842;52.272;8.052;2022-11-20T00:42:33;24.73;;;14.87;;
40959;SDS011;27842;52.272;8.052;2022-11-20T00:44:58;26.60;;;15.33;;
40959;SDS011;27842;52.272;8.052;2022-11-20T00:47:24;25.97;;;13.83;;
40959;SDS011;27842;52.272;8.052;2022-11-20T00:49:50;29.10;;;15.27;;
40959;SDS011;27842;52.272;8.052;2022-11-20T00:52:15;30.50;;;15.77;;
40959;SDS011;27842;52.272;8.052;2022-11-20T00:54:41;36.67;;;17.67;;
40959;SDS011;27842;52.272;8.052;2022-11-20T00:57:06;33.87;;;16.43;;
40959;SDS011;27842;52.272;8.052;2022-11-20T00:59:32;32.13;;;17.00;;
40959;SDS011;27842;52.272;8.052;2022-11-20T01:01:57;30.60;;;15.77;;
40959;SDS011;27842;52.272;8.052;2022-11-20T01:04:23;32.77;;;16.97;;
40959;SDS011;27842;52.272;8.052;2022-11-20T01:06:48;30.37;;;15.87;;
40959;SDS011;27842;52.272;8.052;2022-11-20T01:09:14;25.97;;;14.47;;
40959;SDS011;27842;52.272;8.052;2022-11-20T01:11:41;32.03;;;15.70;;
40959;SDS011;27842;52.272;8.052;2022-11-20T01:14:10;34.33;;;17.00;;
40959;SDS011;27842;52.272;8.052;2022-11-20T01:16:40;37.00;;;18.33;;
40959;SDS011;27842;52.272;8.052;2022-11-20T01:19:09;35.08;;;18.10;;
40959;SDS011;27842;52.272;8.052;2022-11-20T01:24:04;36.23;;;18.47;;
40959;SDS011;27842;52.272;8.052;2022-11-20T01:26:33;36.38;;;18.42;;
40959;SDS011;27842;52.272;8.052;2022-11-20T01:29:00;37.17;;;18.83;;
40959;SDS011;27842;52.272;8.052;2022-11-20T01:33:53;33.77;;;17.37;;
40959;SDS011;27842;52.272;8.052;2022-11-20T01:36:21;32.73;;;17.03;;
40959;SDS011;27842;52.272;8.052;2022-11-20T01:38:50;35.20;;;17.33;;
40959;SDS011;27842;52.272;8.052;2022-11-20T01:44:02;31.63;;;15.43;;
40959;SDS011;27842;52.272;8.052;2022-11-20T01:46:29;28.63;;;14.07;;
40959;SDS011;27842;52.272;8.052;2022-11-20T01:49:02;28.10;;;14.73;;
40959;SDS011;27842;52.272;8.052;2022-11-20T01:51:35;24.73;;;13.67;;
40959;SDS011;27842;52.272;8.052;2022-11-20T01:54:07;25.58;;;13.63;;
40959;SDS011;27842;52.272;8.052;2022-11-20T01:56:41;26.10;;;13.50;;
40959;SDS011;27842;52.272;8.052;2022-11-20T01:59:09;31.60;;;16.40;;
40959;SDS011;27842;52.272;8.052;2022-11-20T02:01:37;32.93;;;18.40;;
40959;SDS011;27842;52.272;8.052;2022-11-20T02:04:04;36.07;;;18.97;;
40959;SDS011;27842;52.272;8.052;2022-11-20T02:06:32;35.53;;;18.20;;
40959;SDS011;27842;52.272;8.052;2022-11-20T02:09:12;33.53;;;18.43;;
40959;SDS011;27842;52.272;8.052;2022-11-20T02:11:39;33.13;;;17.13;;
40959;SDS011;27842;52.272;8.052;2022-11-20T02:14:05;33.07;;;17.87;;
40959;SDS011;27842;52.272;8.052;2022-11-20T02:16:33;29.37;;;14.03;;
40959;SDS011;27842;52.272;8.052;2022-11-20T02:19:02;28.40;;;15.13;;
40959;SDS011;27842;52.272;8.052;2022-11-20T02:21:35;30.98;;;14.18;;
40959;SDS011;27842;52.272;8.052;2022-11-20T02:24:03;33.23;;;15.60;;
40959;SDS011;27842;52.272;8.052;2022-11-20T02:26:31;28.87;;;14.73;;
40959;SDS011;27842;52.272;8.052;2022-11-20T02:29:10;29.50;;;15.10;;
40959;SDS011;27842;52.272;8.052;2022-11-20T02:31:40;31.03;;;16.27;;
40959;SDS011;27842;52.272;8.052;2022-11-20T02:34:07;32.27;;;15.33;;
40959;SDS011;27842;52.272;8.052;2022-11-20T02:36:34;29.80;;;15.13;;
40959;SDS011;27842;52.272;8.052;2022-11-20T02:39:01;29.60;;;15.30;;
40959;SDS011;27842;52.272;8.052;2022-11-20T02:41:35;32.43;;;16.27;;
40959;SDS011;27842;52.272;8.052;2022-11-20T02:44:02;30.67;;;16.60;;
40959;SDS011;27842;52.272;8.052;2022-11-20T02:46:29;34.20;;;16.53;;
40959;SDS011;27842;52.272;8.052;2022-11-20T02:48:56;31.97;;;16.23;;
40959;SDS011;27842;52.272;8.052;2022-11-20T02:51:21;27.20;;;14.57;;
40959;SDS011;27842;52.272;8.052;2022-11-20T02:53:48;28.00;;;13.93;;
40959;SDS011;27842;52.272;8.052;2022-11-20T02:56:13;30.00;;;14.47;;
40959;SDS011;27842;52.272;8.052;2022-11-20T02:58:40;28.13;;;13.80;;
40959;SDS011;27842;52.272;8.052;2022-11-20T03:01:05;24.70;;;14.70;;
40959;SDS011;27842;52.272;8.052;2022-11-20T03:03:31;27.53;;;15.50;;
40959;SDS011;27842;52.272;8.052;2022-11-20T03:05:58;32.13;;;15.50;;
40959;SDS011;27842;52.272;8.052;2022-11-20T03:08:24;28.40;;;15.33;;
40959;SDS011;27842;52.272;8.052;2022-11-20T03:10:50;27.57;;;13.30;;
40959;SDS011;27842;52.272;8.052;2022-11-20T03:13:16;23.43;;;12.83;;
40959;SDS011;27842;52.272;8.052;2022-11-20T03:15:41;24.53;;;12.70;;
40959;SDS011;27842;52.272;8.052;2022-11-20T03:18:07;25.17;;;12.83;;
40959;SDS011;27842;52.272;8.052;2022-11-20T03:20:33;25.80;;;13.00;;
40959;SDS011;27842;52.272;8.052;2022-11-20T03:22:58;24.97;;;12.83;;
40959;SDS011;27842;52.272;8.052;2022-11-20T03:25:24;24.83;;;12.20;;
40959;SDS011;27842;52.272;8.052;2022-11-20T03:27:50;28.60;;;13.87;;
40959;SDS011;27842;52.272;8.052;2022-11-20T03:30:15;28.87;;;13.90;;
40959;SDS011;27842;52.272;8.052;2022-11-20T03:32:41;28.73;;;14.70;;
40959;SDS011;27842;52.272;8.052;2022-11-20T03:35:07;31.73;;;14.40;;
40959;SDS011;27842;52.272;8.052;2022-11-20T03:37:33;33.10;;;15.90;;
40959;SDS011;27842;52.272;8.052;2022-11-20T03:39:58;35.73;;;16.33;;
40959;SDS011;27842;52.272;8.052;2022-11-20T03:42:24;39.97;;;19.20;;
40959;SDS011;27842;52.272;8.052;2022-11-20T03:45:08;40.80;;;18.67;;
40959;SDS011;27842;52.272;8.052;2022-11-20T03:47:34;37.30;;;16.83;;
40959;SDS011;27842;52.272;8.052;2022-11-20T03:49:59;28.17;;;13.73;;
40959;SDS011;27842;52.272;8.052;2022-11-20T03:52:25;28.10;;;14.63;;
40959;SDS011;27842;52.272;8.052;2022-11-20T03:54:50;28.67;;;13.57;;
40959;SDS011;27842;52.272;8.052;2022-11-20T03:57:22;28.67;;;14.20;;
40959;SDS011;27842;52.272;8.052;2022-11-20T03:59:48;30.73;;;15.43;;
40959;SDS011;27842;52.272;8.052;2022-11-20T04:02:13;30.57;;;16.80;;
40959;SDS011;27842;52.272;8.052;2022-11-20T04:04:39;30.93;;;15.53;;
40959;SDS011;27842;52.272;8.052;2022-11-20T04:07:04;32.77;;;17.23;;
40959;SDS011;27842;52.272;8.052;2022-11-20T04:09:30;31.63;;;15.67;;
40959;SDS011;27842;52.272;8.052;2022-11-20T04:11:56;31.90;;;16.63;;
40959;SDS011;27842;52.272;8.052;2022-11-20T04:14:21;32.57;;;16.53;;
40959;SDS011;27842;52.272;8.052;2022-11-20T04:16:47;29.80;;;15.57;;
40959;SDS011;27842;52.272;8.052;2022-11-20T04:19:14;32.33;;;16.40;;
40959;SDS011;27842;52.272;8.052;2022-11-20T04:21:41;32.17;;;16.03;;
40959;SDS011;27842;52.272;8.052;2022-11-20T04:24:07;32.43;;;17.43;;
40959;SDS011;27842;52.272;8.052;2022-11-20T04:26:36;34.13;;;16.97;;
40959;SDS011;27842;52.272;8.052;2022-11-20T04:29:02;32.63;;;15.77;;
40959;SDS011;27842;52.272;8.052;2022-11-20T04:31:30;31.40;;;15.47;;
40959;SDS011;27842;52.272;8.052;2022-11-20T04:34:01;28.15;;;13.30;;
40959;SDS011;27842;52.272;8.052;2022-11-20T04:36:28;28.17;;;14.83;;
40959;SDS011;27842;52.272;8.052;2022-11-20T04:38:55;28.73;;;14.80;;
40959;SDS011;27842;52.272;8.052;2022-11-20T04:41:23;28.60;;;14.53;;
40959;SDS011;27842;52.272;8.052;2022-11-20T04:43:51;31.60;;;16.33;;
40959;SDS011;27842;52.272;8.052;2022-11-20T04:46:23;34.53;;;16.43;;
40959;SDS011;27842;52.272;8.052;2022-11-20T04:48:50;31.70;;;16.10;;
40959;SDS011;27842;52.272;8.052;2022-11-20T04:51:15;27.80;;;15.27;;
40959;SDS011;27842;52.272;8.052;2022-11-20T04:53:41;30.03;;;15.73;;
40959;SDS011;27842;52.272;8.052;2022-11-20T04:56:07;26.80;;;14.23;;
40959;SDS011;27842;52.272;8.052;2022-11-20T04:58:35;28.60;;;14.33;;
40959;SDS011;27842;52.272;8.052;2022-11-20T05:01:01;26.13;;;13.13;;
40959;SDS011;27842;52.272;8.052;2022-11-20T05:03:30;27.17;;;14.13;;
40959;SDS011;27842;52.272;8.052;2022-11-20T05:05:59;27.67;;;14.23;;
40959;SDS011;27842;52.272;8.052;2022-11-20T05:10:51;22.90;;;11.37;;
40959;SDS011;27842;52.272;8.052;2022-11-20T05:13:17;25.03;;;12.57;;
40959;SDS011;27842;52.272;8.052;2022-11-20T05:15:42;22.17;;;11.27;;
40959;SDS011;27842;52.272;8.052;2022-11-20T05:18:08;24.10;;;11.83;;
40959;SDS011;27842;52.272;8.052;2022-11-20T05:20:34;22.17;;;10.53;;
40959;SDS011;27842;52.272;8.052;2022-11-20T05:23:01;21.07;;;10.60;;
40959;SDS011;27842;52.272;8.052;2022-11-20T05:25:27;21.23;;;10.37;;
40959;SDS011;27842;52.272;8.052;2022-11-20T05:27:52;21.90;;;10.30;;
40959;SDS011;27842;52.272;8.052;2022-11-20T05:30:18;21.87;;;10.57;;
40959;SDS011;27842;52.272;8.052;2022-11-20T05:32:44;25.73;;;11.63;;
40959;SDS011;27842;52.272;8.052;2022-11-20T05:35:09;20.83;;;10.37;;
40959;SDS011;27842;52.272;8.052;2022-11-20T05:37:35;22.67;;;11.27;;
40959;SDS011;27842;52.272;8.052;2022-11-20T05:40:01;23.57;;;10.93;;
40959;SDS011;27842;52.272;8.052;2022-11-20T05:42:29;22.27;;;10.67;;
40959;SDS011;27842;52.272;8.052;2022-11-20T05:44:59;21.02;;;10.63;;
40959;SDS011;27842;52.272;8.052;2022-11-20T05:47:26;23.47;;;11.13;;
40959;SDS011;27842;52.272;8.052;2022-11-20T05:49:53;21.70;;;10.43;;
40959;SDS011;27842;52.272;8.052;2022-11-20T05:52:18;24.03;;;11.50;;
40959;SDS011;27842;52.272;8.052;2022-11-20T05:54:44;20.50;;;10.43;;
40959;SDS011;27842;52.272;8.052;2022-11-20T05:57:19;21.83;;;10.80;;
40959;SDS011;27842;52.272;8.052;2022-11-20T05:59:44;22.93;;;11.50;;
40959;SDS011;27842;52.272;8.052;2022-11-20T06:02:10;21.27;;;11.17;;
40959;SDS011;27842;52.272;8.052;2022-11-20T06:04:35;23.30;;;11.23;;
40959;SDS011;27842;52.272;8.052;2022-11-20T06:07:04;21.47;;;10.50;;
40959;SDS011;27842;52.272;8.052;2022-11-20T06:09:29;23.67;;;11.30;;
40959;SDS011;27842;52.272;8.052;2022-11-20T06:11:55;23.53;;;11.23;;
40959;SDS011;27842;52.272;8.052;2022-11-20T06:14:21;24.47;;;12.33;;
40959;SDS011;27842;52.272;8.052;2022-11-20T06:16:46;24.03;;;11.70;;
40959;SDS011;27842;52.272;8.052;2022-11-20T06:19:12;22.67;;;11.63;;
40959;SDS011;27842;52.272;8.052;2022-11-20T06:21:38;22.13;;;11.60;;
40959;SDS011;27842;52.272;8.052;2022-11-20T06:24:03;23.37;;;11.93;;
40959;SDS011;27842;52.272;8.052;2022-11-20T06:26:35;24.67;;;12.40;;
40959;SDS011;27842;52.272;8.052;2022-11-20T06:29:01;24.67;;;12.40;;
40959;SDS011;27842;52.272;8.052;2022-11-20T06:31:26;25.57;;;12.23;;
40959;SDS011;27842;52.272;8.052;2022-11-20T06:33:52;24.43;;;13.17;;
40959;SDS011;27842;52.272;8.052;2022-11-20T06:36:19;25.53;;;12.87;;
40959;SDS011;27842;52.272;8.052;2022-11-20T06:38:46;23.30;;;11.67;;
40959;SDS011;27842;52.272;8.052;2022-11-20T06:41:13;23.87;;;11.63;;
40959;SDS011;27842;52.272;8.052;2022-11-20T06:43:40;23.43;;;11.80;;
40959;SDS011;27842;52.272;8.052;2022-11-20T06:46:06;22.27;;;11.57;;
40959;SDS011;27842;52.272;8.052;2022-11-20T06:48:32;25.00;;;12.17;;
40959;SDS011;27842;52.272;8.052;2022-11-20T06:50:58;22.23;;;11.80;;
40959;SDS011;27842;52.272;8.052;2022-11-20T06:53:24;24.83;;;12.10;;
40959;SDS011;27842;52.272;8.052;2022-11-20T06:55:50;22.63;;;11.43;;
40959;SDS011;27842;52.272;8.052;2022-11-20T06:58:16;23.63;;;12.13;;
40959;SDS011;27842;52.272;8.052;2022-11-20T07:00:43;26.27;;;12.27;;
40959;SDS011;27842;52.272;8.052;2022-11-20T07:03:10;24.40;;;12.30;;
40959;SDS011;27842;52.272;8.052;2022-11-20T07:05:36;25.23;;;13.53;;
40959;SDS011;27842;52.272;8.052;2022-11-20T07:08:03;25.20;;;13.27;;
40959;SDS011;27842;52.272;8.052;2022-11-20T07:10:29;26.07;;;12.83;;
40959;SDS011;27842;52.272;8.052;2022-11-20T07:12:55;25.93;;;12.17;;
40959;SDS011;27842;52.272;8.052;2022-11-20T07:15:21;25.17;;;12.53;;
40959;SDS011;27842;52.272;8.052;2022-11-20T07:17:48;23.23;;;12.27;;
40959;SDS011;27842;52.272;8.052;2022-11-20T07:20:14;25.53;;;12.47;;
40959;SDS011;27842;52.272;8.052;2022-11-20T07:22:40;24.43;;;12.43;;
40959;SDS011;27842;52.272;8.052;2022-11-20T07:25:07;25.17;;;12.30;;
40959;SDS011;27842;52.272;8.052;2022-11-20T07:27:37;24.17;;;11.90;;
40959;SDS011;27842;52.272;8.052;2022-11-20T07:30:03;22.88;;;11.85;;
40959;SDS011;27842;52.272;8.052;2022-11-20T07:32:29;22.90;;;10.70;;
40959;SDS011;27842;52.272;8.052;2022-11-20T07:34:54;24.03;;;11.57;;
40959;SDS011;27842;52.272;8.052;2022-11-20T07:37:20;23.47;;;11.03;;
40959;SDS011;27842;52.272;8.052;2022-11-20T07:39:46;21.90;;;11.03;;
40959;SDS011;27842;52.272;8.052;2022-11-20T07:42:11;23.00;;;10.80;;
40959;SDS011;27842;52.272;8.052;2022-11-20T07:44:37;21.30;;;10.03;;
40959;SDS011;27842;52.272;8.052;2022-11-20T07:47:03;23.77;;;11.27;;
40959;SDS011;27842;52.272;8.052;2022-11-20T07:49:29;22.47;;;10.67;;
40959;SDS011;27842;52.272;8.052;2022-11-20T07:51:54;22.00;;;9.27;;
40959;SDS011;27842;52.272;8.052;2022-11-20T07:54:23;20.93;;;9.27;;
40959;SDS011;27842;52.272;8.052;2022-11-20T07:56:49;20.42;;;9.50;;
40959;SDS011;27842;52.272;8.052;2022-11-20T07:59:14;20.93;;;10.03;;
40959;SDS011;27842;52.272;8.052;2022-11-20T08:01:41;22.47;;;10.30;;
40959;SDS011;27842;52.272;8.052;2022-11-20T08:04:07;21.47;;;10.03;;
40959;SDS011;27842;52.272;8.052;2022-11-20T08:06:34;21.20;;;9.80;;
40959;SDS011;27842;52.272;8.052;2022-11-20T08:09:00;22.63;;;10.20;;
40959;SDS011;27842;52.272;8.052;2022-11-20T08:11:25;21.43;;;9.93;;
40959;SDS011;27842;52.272;8.052;2022-11-20T08:14:09;21.83;;;10.67;;
40959;SDS011;27842;52.272;8.052;2022-11-20T08:16:38;20.10;;;9.87;;
40959;SDS011;27842;52.272;8.052;2022-11-20T08:19:04;19.63;;;9.37;;
40959;SDS011;27842;52.272;8.052;2022-11-20T08:21:30;22.87;;;10.60;;
40959;SDS011;27842;52.272;8.052;2022-11-20T08:23:56;20.87;;;10.07;;
40959;SDS011;27842;52.272;8.052;2022-11-20T08:26:23;22.73;;;10.67;;
40959;SDS011;27842;52.272;8.052;2022-11-20T08:28:49;21.77;;;10.77;;
40959;SDS011;27842;52.272;8.052;2022-11-20T08:31:19;22.87;;;10.80;;
40959;SDS011;27842;52.272;8.052;2022-11-20T08:33:44;20.50;;;10.33;;
40959;SDS011;27842;52.272;8.052;2022-11-20T08:36:10;22.17;;;10.80;;
40959;SDS011;27842;52.272;8.052;2022-11-20T08:38:36;21.53;;;10.50;;
40959;SDS011;27842;52.272;8.052;2022-11-20T08:41:03;23.80;;;11.40;;
40959;SDS011;27842;52.272;8.052;2022-11-20T08:43:48;22.47;;;10.80;;
40959;SDS011;27842;52.272;8.052;2022-11-20T08:46:14;23.30;;;12.30;;
40959;SDS011;27842;52.272;8.052;2022-11-20T08:48:39;24.03;;;11.70;;
40959;SDS011;27842;52.272;8.052;2022-11-20T08:51:05;22.33;;;10.57;;
40959;SDS011;27842;52.272;8.052;2022-11-20T08:53:31;19.97;;;10.20;;
40959;SDS011;27842;52.272;8.052;2022-11-20T08:55:57;22.43;;;10.97;;
40959;SDS011;27842;52.272;8.052;2022-11-20T08:58:23;20.77;;;10.53;;
40959;SDS011;27842;52.272;8.052;2022-11-20T09:00:49;22.47;;;11.80;;
40959;SDS011;27842;52.272;8.052;2022-11-20T09:03:15;23.60;;;10.57;;
40959;SDS011;27842;52.272;8.052;2022-11-20T09:05:43;21.52;;;10.57;;
40959;SDS011;27842;52.272;8.052;2022-11-20T09:08:09;22.23;;;10.47;;
40959;SDS011;27842;52.272;8.052;2022-11-20T09:10:34;23.50;;;11.13;;
40959;SDS011;27842;52.272;8.052;2022-11-20T09:13:01;23.43;;;11.00;;
40959;SDS011;27842;52.272;8.052;2022-11-20T09:15:27;23.00;;;10.60;;
40959;SDS011;27842;52.272;8.052;2022-11-20T09:17:53;24.20;;;11.00;;
40959;SDS011;27842;52.272;8.052;2022-11-20T09:20:20;23.13;;;11.73;;
40959;SDS011;27842;52.272;8.052;2022-11-20T09:22:46;21.97;;;11.07;;
40959;SDS011;27842;52.272;8.052;2022-11-20T09:25:12;23.53;;;11.80;;
40959;SDS011;27842;52.272;8.052;2022-11-20T09:27:38;24.50;;;11.97;;
40959;SDS011;27842;52.272;8.052;2022-11-20T09:30:06;28.20;;;14.50;;
40959;SDS011;27842;52.272;8.052;2022-11-20T09:32:32;26.23;;;12.50;;
40959;SDS011;27842;52.272;8.052;2022-11-20T09:34:58;25.27;;;13.33;;
40959;SDS011;27842;52.272;8.052;2022-11-20T09:37:24;26.70;;;12.23;;
40959;SDS011;27842;52.272;8.052;2022-11-20T09:39:49;28.17;;;13.73;;
40959;SDS011;27842;52.272;8.052;2022-11-20T09:55:28;31.70;;;14.57;;
40959;SDS011;27842;52.272;8.052;2022-11-20T09:57:55;32.97;;;15.63;;
40959;SDS011;27842;52.272;8.052;2022-11-20T10:00:24;31.85;;;15.38;;
40959;SDS011;27842;52.272;8.052;2022-11-20T10:03:06;31.03;;;14.50;;
40959;SDS011;27842;52.272;8.052;2022-11-20T10:05:45;32.63;;;14.53;;
40959;SDS011;27842;52.272;8.052;2022-11-20T10:08:20;31.63;;;14.68;;
40959;SDS011;27842;52.272;8.052;2022-11-20T10:32:45;37.93;;;16.73;;
40959;SDS011;27842;52.272;8.052;2022-11-20T10:37:40;37.07;;;17.53;;
40959;SDS011;27842;52.272;8.052;2022-11-20T10:42:53;34.97;;;16.27;;
40959;SDS011;27842;52.272;8.052;2022-11-20T10:47:51;36.58;;;17.23;;
40959;SDS011;27842;52.272;8.052;2022-11-20T10:50:26;34.97;;;16.93;;
40959;SDS011;27842;52.272;8.052;2022-11-20T10:53:08;38.77;;;17.87;;
40959;SDS011;27842;52.272;8.052;2022-11-20T10:55:57;37.47;;;18.47;;
40959;SDS011;27842;52.272;8.052;2022-11-20T10:58:48;40.10;;;19.73;;
40959;SDS011;27842;52.272;8.052;2022-11-20T11:01:53;39.13;;;18.70;;
40959;SDS011;27842;52.272;8.052;2022-11-20T11:06:47;39.03;;;17.97;;
40959;SDS011;27842;52.272;8.052;2022-11-20T11:09:19;41.97;;;20.10;;
40959;SDS011;27842;52.272;8.052;2022-11-20T11:11:53;40.08;;;19.52;;
40959;SDS011;27842;52.272;8.052;2022-11-20T11:14:18;43.63;;;21.77;;
40959;SDS011;27842;52.272;8.052;2022-11-20T11:16:51;37.67;;;18.43;;
40959;SDS011;27842;52.272;8.052;2022-11-20T11:19:19;37.00;;;18.97;;
40959;SDS011;27842;52.272;8.052;2022-11-20T11:21:49;39.67;;;20.03;;
40959;SDS011;27842;52.272;8.052;2022-11-20T11:24:21;42.43;;;19.27;;
40959;SDS011;27842;52.272;8.052;2022-11-20T11:29:24;37.83;;;18.27;;
40959;SDS011;27842;52.272;8.052;2022-11-20T11:32:06;37.63;;;19.27;;
40959;SDS011;27842;52.272;8.052;2022-11-20T11:34:34;34.53;;;17.07;;
40959;SDS011;27842;52.272;8.052;2022-11-20T11:37:00;36.60;;;18.43;;
40959;SDS011;27842;52.272;8.052;2022-11-20T11:39:28;35.55;;;18.27;;
40959;SDS011;27842;52.272;8.052;2022-11-20T11:41:56;36.23;;;17.33;;
40959;SDS011;27842;52.272;8.052;2022-11-20T11:47:22;35.83;;;17.17;;
40959;SDS011;27842;52.272;8.052;2022-11-20T11:52:34;33.67;;;17.30;;
40959;SDS011;27842;52.272;8.052;2022-11-20T11:58:28;31.73;;;16.07;;
40959;SDS011;27842;52.272;8.052;2022-11-20T12:03:40;31.83;;;16.87;;
40959;SDS011;27842;52.272;8.052;2022-11-20T12:06:13;35.83;;;17.73;;
40959;SDS011;27842;52.272;8.052;2022-11-20T12:08:43;33.67;;;17.10;;
40959;SDS011;27842;52.272;8.052;2022-11-20T12:16:23;31.00;;;15.07;;
40959;SDS011;27842;52.272;8.052;2022-11-20T12:18:49;31.00;;;14.37;;
40959;SDS011;27842;52.272;8.052;2022-11-20T12:21:27;29.20;;;14.37;;
40959;SDS011;27842;52.272;8.052;2022-11-20T12:32:17;29.20;;;13.33;;
40959;SDS011;27842;52.272;8.052;2022-11-20T12:35:18;27.03;;;13.63;;
40959;SDS011;27842;52.272;8.052;2022-11-20T12:43:29;29.07;;;14.27;;
40959;SDS011;27842;52.272;8.052;2022-11-20T12:46:26;28.30;;;14.03;;
40959;SDS011;27842;52.272;8.052;2022-11-20T13:19:15;38.87;;;19.83;;
40959;SDS011;27842;52.272;8.052;2022-11-20T13:21:43;35.30;;;18.73;;
40959;SDS011;27842;52.272;8.052;2022-11-20T13:29:40;31.70;;;17.20;;
40959;SDS011;27842;52.272;8.052;2022-11-20T13:32:15;33.90;;;18.13;;
40959;SDS011;27842;52.272;8.052;2022-11-20T13:34:55;34.20;;;18.40;;
40959;SDS011;27842;52.272;8.052;2022-11-20T13:37:30;32.97;;;17.53;;
40959;SDS011;27842;52.272;8.052;2022-11-20T13:42:39;33.90;;;19.10;;
40959;SDS011;27842;52.272;8.052;2022-11-20T13:45:29;39.70;;;21.50;;
40959;SDS011;27842;52.272;8.052;2022-11-20T13:47:55;35.87;;;19.50;;
40959;SDS011;27842;52.272;8.052;2022-11-20T13:50:27;34.70;;;18.83;;
40959;SDS011;27842;52.272;8.052;2022-11-20T13:53:04;38.40;;;21.23;;
40959;SDS011;27842;52.272;8.052;2022-11-20T13:55:44;36.03;;;18.90;;
40959;SDS011;27842;52.272;8.052;2022-11-20T14:03:51;35.45;;;19.17;;
40959;SDS011;27842;52.272;8.052;2022-11-20T14:06:31;32.40;;;17.07;;
40959;SDS011;27842;52.272;8.052;2022-11-20T14:09:03;32.20;;;16.13;;
40959;SDS011;27842;52.272;8.052;2022-11-20T14:11:29;30.37;;;15.83;;
40959;SDS011;27842;52.272;8.052;2022-11-20T14:13:57;32.03;;;16.03;;
40959;SDS011;27842;52.272;8.052;2022-11-20T14:16:23;30.47;;;16.50;;
40959;SDS011;27842;52.272;8.052;2022-11-20T14:18:50;28.80;;;15.07;;
40959;SDS011;27842;52.272;8.052;2022-11-20T14:21:23;32.57;;;17.00;;
40959;SDS011;27842;52.272;8.052;2022-11-20T14:24:06;29.47;;;16.37;;
40959;SDS011;27842;52.272;8.052;2022-11-20T14:26:35;28.57;;;15.07;;
40959;SDS011;27842;52.272;8.052;2022-11-20T14:29:10;28.80;;;16.00;;
40959;SDS011;27842;52.272;8.052;2022-11-20T14:31:42;27.47;;;15.70;;
40959;SDS011;27842;52.272;8.052;2022-11-20T14:34:15;29.67;;;15.73;;
40959;SDS011;27842;52.272;8.052;2022-11-20T14:36:45;29.70;;;15.97;;
40959;SDS011;27842;52.272;8.052;2022-11-20T14:39:11;27.23;;;15.20;;
40959;SDS011;27842;52.272;8.052;2022-11-20T14:41:52;27.20;;;15.47;;
40959;SDS011;27842;52.272;8.052;2022-11-20T14:44:20;30.07;;;16.53;;
40959;SDS011;27842;52.272;8.052;2022-11-20T14:46:51;28.30;;;15.30;;
40959;SDS011;27842;52.272;8.052;2022-11-20T14:49:19;30.98;;;17.38;;
40959;SDS011;27842;52.272;8.052;2022-11-20T14:51:45;26.70;;;15.47;;
40959;SDS011;27842;52.272;8.052;2022-11-20T14:57:00;27.87;;;15.40;;
40959;SDS011;27842;52.272;8.052;2022-11-20T14:59:28;29.45;;;15.95;;
40959;SDS011;27842;52.272;8.052;2022-11-20T15:02:06;28.37;;;15.27;;
40959;SDS011;27842;52.272;8.052;2022-11-20T15:04:48;30.10;;;15.83;;
40959;SDS011;27842;52.272;8.052;2022-11-20T15:07:28;30.27;;;16.20;;
40959;SDS011;27842;52.272;8.052;2022-11-20T15:10:06;28.97;;;16.00;;
40959;SDS011;27842;52.272;8.052;2022-11-20T15:12:35;29.23;;;15.60;;
40959;SDS011;27842;52.272;8.052;2022-11-20T15:15:05;30.47;;;16.13;;
40959;SDS011;27842;52.272;8.052;2022-11-20T15:17:31;31.30;;;16.97;;
40959;SDS011;27842;52.272;8.052;2022-11-20T15:20:01;29.80;;;16.77;;
40959;SDS011;27842;52.272;8.052;2022-11-20T15:22:28;29.03;;;17.00;;
40959;SDS011;27842;52.272;8.052;2022-11-20T15:24:53;29.70;;;16.20;;
40959;SDS011;27842;52.272;8.052;2022-11-20T15:27:19;31.57;;;17.37;;
40959;SDS011;27842;52.272;8.052;2022-11-20T15:29:45;34.93;;;18.20;;
40959;SDS011;27842;52.272;8.052;2022-11-20T15:32:11;31.00;;;17.57;;
40959;SDS011;27842;52.272;8.052;2022-11-20T15:34:36;31.47;;;17.27;;
40959;SDS011;27842;52.272;8.052;2022-11-20T15:37:02;31.97;;;16.77;;
40959;SDS011;27842;52.272;8.052;2022-11-20T15:39:27;30.63;;;16.13;;
40959;SDS011;27842;52.272;8.052;2022-11-20T15:41:53;29.67;;;15.87;;
40959;SDS011;27842;52.272;8.052;2022-11-20T15:44:18;29.90;;;16.60;;
40959;SDS011;27842;52.272;8.052;2022-11-20T15:46:44;27.53;;;14.67;;
40959;SDS011;27842;52.272;8.052;2022-11-20T15:49:15;29.20;;;16.10;;
40959;SDS011;27842;52.272;8.052;2022-11-20T15:51:44;26.40;;;15.07;;
40959;SDS011;27842;52.272;8.052;2022-11-20T15:54:16;25.93;;;14.53;;
40959;SDS011;27842;52.272;8.052;2022-11-20T15:56:45;27.60;;;15.00;;
40959;SDS011;27842;52.272;8.052;2022-11-20T15:59:13;27.90;;;14.75;;
40959;SDS011;27842;52.272;8.052;2022-11-20T16:01:40;28.80;;;15.60;;
40959;SDS011;27842;52.272;8.052;2022-11-20T16:04:10;26.57;;;14.47;;
40959;SDS011;27842;52.272;8.052;2022-11-20T16:06:38;27.37;;;15.63;;
40959;SDS011;27842;52.272;8.052;2022-11-20T16:09:04;25.50;;;13.83;;
40959;SDS011;27842;52.272;8.052;2022-11-20T16:11:29;25.90;;;14.47;;
40959;SDS011;27842;52.272;8.052;2022-11-20T16:13:55;28.40;;;15.13;;
40959;SDS011;27842;52.272;8.052;2022-11-20T16:16:39;27.80;;;15.80;;
40959;SDS011;27842;52.272;8.052;2022-11-20T16:19:09;28.13;;;15.80;;
40959;SDS011;27842;52.272;8.052;2022-11-20T16:21:38;26.57;;;15.60;;
40959;SDS011;27842;52.272;8.052;2022-11-20T16:24:06;27.67;;;15.07;;
40959;SDS011;27842;52.272;8.052;2022-11-20T16:26:37;25.80;;;13.80;;
40959;SDS011;27842;52.272;8.052;2022-11-20T16:29:03;27.38;;;14.60;;
40959;SDS011;27842;52.272;8.052;2022-11-20T16:31:30;27.97;;;15.20;;
40959;SDS011;27842;52.272;8.052;2022-11-20T16:33:57;28.17;;;13.43;;
40959;SDS011;27842;52.272;8.052;2022-11-20T16:36:24;27.17;;;14.17;;
40959;SDS011;27842;52.272;8.052;2022-11-20T16:38:56;27.47;;;15.23;;
40959;SDS011;27842;52.272;8.052;2022-11-20T16:41:26;26.13;;;14.23;;
40959;SDS011;27842;52.272;8.052;2022-11-20T16:43:55;27.67;;;15.37;;
40959;SDS011;27842;52.272;8.052;2022-11-20T16:46:23;28.03;;;14.80;;